Time;durP1;ratioP1;P1;durP2;ratioP2;P2;SDS_P1;SDS_P2;PMS_P1;PMS_P2;Temp;Humidity;BMP_temperature;BMP_pressure;BME280_temperature;BME280_humidity;BME280_pressure;Samples;Min_cycle;Max_cycle;Signal;HPM_P1;HPM_P2
2021/12/05 00:23:39;;;;;;;25.23;12.48;;;4.10;99.90;;;;;;4951930;28;89007;-37
2021/12/05 00:26:07;;;;;;;16.92;12.57;;;4.10;99.90;;;;;;4951172;28;88939;-37
2021/12/05 00:31:29;;;;;;;15.98;11.07;;;4.20;99.90;;;;;;4951579;28;88966;-36
2021/12/05 00:34:16;;;;;;;13.87;10.80;;;4.20;99.90;;;;;;4950677;28;88898;-37
2021/12/05 01:11:17;;;;;;;14.52;9.48;;;4.00;99.90;;;;;;4953690;28;88942;-37
2021/12/05 01:19:07;;;;;;;16.85;8.95;;;4.00;99.90;;;;;;4970412;28;87260;-37
2021/12/05 01:21:35;;;;;;;11.82;9.25;;;4.10;99.90;;;;;;4972512;28;88655;-37
2021/12/05 01:24:11;;;;;;;15.27;8.70;;;4.10;99.90;;;;;;4973399;28;89222;-37
2021/12/05 01:30:10;;;;;;;16.95;8.93;;;4.10;99.90;;;;;;4952907;28;88482;-36
2021/12/05 01:38:24;;;;;;;12.50;8.57;;;4.10;99.90;;;;;;4972208;28;89764;-36
2021/12/05 01:52:19;;;;;;;12.07;9.70;;;4.10;99.90;;;;;;4971749;28;89077;-36
2021/12/05 02:08:53;;;;;;;13.70;8.43;;;4.10;99.90;;;;;;4957055;28;89181;-36
2021/12/05 02:33:12;;;;;;;17.02;12.65;;;4.20;99.90;;;;;;4970210;28;90451;-36
2021/12/05 02:36:07;;;;;;;13.85;10.95;;;4.20;99.90;;;;;;4970491;28;90773;-36
2021/12/05 02:39:00;;;;;;;;;;;4.20;99.90;;;;;;4971473;28;87010;-36
2021/12/05 02:41:24;;;;;;;18.90;12.43;;;4.20;99.90;;;;;;4972559;28;89399;-36
2021/12/05 02:44:11;;;;;;;21.52;13.10;;;4.20;99.90;;;;;;4970268;28;88603;-36
2021/12/05 02:46:40;;;;;;;19.65;13.50;;;4.20;99.90;;;;;;4971476;28;88368;-36
2021/12/05 02:49:10;;;;;;;21.13;15.43;;;4.20;99.90;;;;;;4971521;28;88026;-35
2021/12/05 02:51:36;;;;;;;18.08;13.77;;;4.20;99.90;;;;;;4970444;28;89236;-36
2021/12/05 02:54:09;;;;;;;22.67;15.82;;;4.30;99.90;;;;;;4971067;28;88358;-36
2021/12/05 02:56:41;;;;;;;21.50;16.40;;;4.20;99.90;;;;;;4970610;28;88713;-36
2021/12/05 02:59:20;;;;;;;26.42;17.10;;;4.20;99.90;;;;;;4969561;28;89514;-37
2021/12/05 03:01:51;;;;;;;29.15;18.48;;;4.20;99.90;;;;;;4970281;28;87793;-36
2021/12/05 03:04:17;;;;;;;22.85;16.98;;;4.20;99.90;;;;;;4970131;28;88734;-37
2021/12/05 03:06:51;;;;;;;19.95;17.50;;;4.20;99.90;;;;;;4970322;28;88343;-36
2021/12/05 03:09:17;;;;;;;26.15;17.80;;;4.30;99.90;;;;;;4969949;28;87369;-36
2021/12/05 03:11:44;;;;;;;26.38;18.75;;;4.30;99.90;;;;;;4970400;28;89572;-36
2021/12/05 03:14:10;;;;;;;25.50;19.55;;;4.30;99.90;;;;;;4971195;28;88480;-36
2021/12/05 03:16:38;;;;;;;24.83;19.45;;;4.30;99.90;;;;;;4969969;28;88260;-37
2021/12/05 03:19:08;;;;;;;28.77;18.42;;;4.30;99.90;;;;;;4970329;28;87753;-37
2021/12/05 03:21:36;;;;;;;25.48;18.63;;;4.30;99.90;;;;;;4968937;28;89585;-33
2021/12/05 03:24:03;;;;;;;27.23;18.80;;;4.30;99.90;;;;;;4969973;28;89465;-34
2021/12/05 03:26:35;;;;;;;21.98;18.27;;;4.30;99.90;;;;;;4969085;28;89137;-36
2021/12/05 03:29:04;;;;;;;26.38;19.42;;;4.30;99.90;;;;;;4970003;28;87689;-34
2021/12/05 03:31:31;;;;;;;26.25;18.80;;;4.30;99.90;;;;;;4969822;28;88976;-35
2021/12/05 03:33:59;;;;;;;24.60;18.45;;;4.30;99.90;;;;;;4969475;28;88610;-34
2021/12/05 03:36:25;;;;;;;29.80;19.02;;;4.30;99.90;;;;;;4969863;28;88566;-34
2021/12/05 03:38:51;;;;;;;26.23;16.77;;;4.30;99.90;;;;;;4969613;28;88809;-34
2021/12/05 03:41:18;;;;;;;20.13;16.55;;;4.40;99.90;;;;;;4952825;28;89528;-34
2021/12/05 03:43:47;;;;;;;28.67;17.25;;;4.30;99.90;;;;;;4968879;28;90249;-34
2021/12/05 03:46:13;;;;;;;27.08;17.63;;;4.30;99.90;;;;;;4969383;28;87935;-34
2021/12/05 03:48:45;;;;;;;21.85;17.40;;;4.30;99.90;;;;;;4969620;28;87576;-34
2021/12/05 03:51:14;;;;;;;26.25;16.17;;;4.30;99.90;;;;;;4969589;28;89719;-34
2021/12/05 03:53:39;;;;;;;;;;;4.30;99.90;;;;;;4968721;28;88486;-34
2021/12/05 03:56:08;;;;;;;24.42;12.25;;;4.30;99.90;;;;;;4970943;28;87950;-33
2021/12/05 03:58:35;;;;;;;21.38;13.75;;;4.30;99.90;;;;;;4969414;28;87484;-33
2021/12/05 04:01:02;;;;;;;21.23;13.82;;;4.30;99.90;;;;;;4969521;28;89812;-34
2021/12/05 04:03:30;;;;;;;17.73;13.75;;;4.30;99.90;;;;;;4969795;28;88677;-36
2021/12/05 04:05:57;;;;;;;15.85;11.07;;;4.20;99.90;;;;;;4969185;28;88791;-34
2021/12/05 04:08:25;;;;;;;18.77;12.85;;;4.30;99.90;;;;;;4968912;28;88313;-34
2021/12/05 04:11:04;;;;;;;22.45;14.90;;;4.30;99.90;;;;;;4969003;28;88931;-34
2021/12/05 04:13:30;;;;;;;;;;;4.30;99.90;;;;;;4968296;28;89985;-35
2021/12/05 04:15:56;;;;;;;20.90;12.02;;;4.20;99.90;;;;;;4970765;28;89276;-34
2021/12/05 04:18:23;;;;;;;18.77;11.65;;;4.20;99.90;;;;;;4969161;28;88869;-34
2021/12/05 04:20:49;;;;;;;20.23;11.95;;;4.20;99.90;;;;;;4968457;28;89785;-34
2021/12/05 04:23:15;;;;;;;19.10;11.05;;;4.20;99.90;;;;;;4969510;28;88372;-33
2021/12/05 04:25:40;;;;;;;22.08;11.77;;;4.10;99.90;;;;;;4967907;28;88380;-33
2021/12/05 04:28:09;;;;;;;23.85;12.35;;;4.10;99.90;;;;;;4969406;28;87765;-34
2021/12/05 04:30:35;;;;;;;25.52;11.68;;;4.10;99.90;;;;;;4972815;28;89161;-33
2021/12/05 04:33:01;;;;;;;19.45;10.90;;;4.10;99.90;;;;;;4973759;28;88854;-34
2021/12/05 04:35:27;;;;;;;19.67;10.02;;;4.00;99.90;;;;;;4972627;28;88614;-34
2021/12/05 04:37:52;;;;;;;17.13;10.25;;;4.10;99.90;;;;;;4955919;28;88353;-34
2021/12/05 04:40:19;;;;;;;17.83;10.20;;;4.00;99.90;;;;;;4973134;28;89207;-35
2021/12/05 04:42:44;;;;;;;18.60;10.65;;;4.00;99.90;;;;;;4973024;28;87649;-32
2021/12/05 04:45:22;;;;;;;15.98;9.15;;;4.00;99.90;;;;;;4974221;28;88427;-33
2021/12/05 04:47:48;;;;;;;16.60;10.38;;;4.00;99.90;;;;;;4978088;28;86726;-34
2021/12/05 04:50:15;;;;;;;12.07;10.55;;;4.00;99.90;;;;;;4976209;28;89435;-33
2021/12/05 04:52:41;;;;;;;12.98;9.57;;;3.90;99.90;;;;;;4976526;28;88829;-35
2021/12/05 04:55:07;;;;;;;24.08;9.48;;;3.90;99.90;;;;;;4977191;28;87895;-34
2021/12/05 04:57:33;;;;;;;14.02;8.98;;;3.80;99.90;;;;;;4976261;28;87226;-34
2021/12/05 04:59:59;;;;;;;20.35;10.18;;;3.80;99.90;;;;;;4977918;28;89655;-32
2021/12/05 05:02:25;;;;;;;20.75;9.32;;;3.80;99.90;;;;;;4976255;28;89073;-34
2021/12/05 05:04:51;;;;;;;19.08;10.50;;;3.80;99.90;;;;;;4976528;28;89077;-34
2021/12/05 05:07:23;;;;;;;19.50;9.93;;;3.80;99.90;;;;;;4976644;28;87697;-33
2021/12/05 05:09:55;;;;;;;15.57;8.57;;;3.80;99.90;;;;;;4976350;28;89845;-32
2021/12/05 05:12:21;;;;;;;16.35;9.70;;;3.70;99.90;;;;;;4977478;28;88678;-34
2021/12/05 05:14:47;;;;;;;12.50;8.98;;;3.80;99.90;;;;;;4977119;28;88495;-33
2021/12/05 05:17:13;;;;;;;17.48;9.90;;;3.70;99.90;;;;;;4975710;28;87191;-36
2021/12/05 05:19:48;;;;;;;21.27;9.27;;;3.70;99.90;;;;;;4977168;28;89379;-30
2021/12/05 05:49:58;;;;;;;15.45;10.25;;;3.60;99.90;;;;;;4976160;28;87508;-34
2021/12/05 05:52:00;;;;;;;16.40;9.88;;;3.70;99.90;;;;;;4972133;28;87683;-33
2021/12/05 05:54:26;;;;;;;21.35;10.93;;;3.70;99.90;;;;;;4975866;28;89693;-35
2021/12/05 05:56:57;;;;;;;23.15;10.32;;;3.60;99.90;;;;;;4973796;28;89221;-33
2021/12/05 05:59:31;;;;;;;18.45;10.02;;;3.60;99.90;;;;;;4975325;28;87660;-33
2021/12/05 06:03:19;;;;;;;19.00;9.30;;;3.60;99.90;;;;;;4976138;28;89287;-32
2021/12/05 06:04:42;;;;;;;16.98;10.05;;;3.50;99.90;;;;;;4975817;28;89432;-34
2021/12/05 06:07:08;;;;;;;17.48;9.85;;;3.60;99.90;;;;;;4975378;28;88383;-33
2021/12/05 06:09:34;;;;;;;18.02;10.27;;;3.60;99.90;;;;;;4976137;28;87856;-34
2021/12/05 06:12:01;;;;;;;13.02;8.48;;;3.50;99.90;;;;;;4975577;28;89533;-34
2021/12/05 06:14:28;;;;;;;19.45;9.75;;;3.50;99.90;;;;;;4976329;28;89131;-35
2021/12/05 06:16:54;;;;;;;22.77;10.30;;;3.50;99.90;;;;;;4975810;28;87978;-35
2021/12/05 06:19:19;;;;;;;18.05;9.93;;;3.50;99.90;;;;;;4975018;28;87451;-32
2021/12/05 06:21:45;;;;;;;15.32;9.98;;;3.50;99.90;;;;;;4975515;28;89301;-33
2021/12/05 06:24:11;;;;;;;22.10;10.02;;;3.50;99.90;;;;;;4974553;28;88776;-33
2021/12/05 06:26:37;;;;;;;16.40;9.50;;;3.50;99.90;;;;;;4974950;28;88455;-34
2021/12/05 06:29:17;;;;;;;15.95;9.95;;;3.50;99.90;;;;;;4976225;28;86995;-35
2021/12/05 06:39:59;;;;;;;22.60;8.63;;;3.40;99.90;;;;;;4976387;28;87613;-34
2021/12/05 06:47:54;;;;;;;16.33;10.35;;;3.50;99.90;;;;;;4975663;28;89597;-33
2021/12/05 06:50:19;;;;;;;20.75;11.25;;;3.50;99.90;;;;;;4974308;28;86813;-34
2021/12/05 06:52:46;;;;;;;19.55;11.35;;;3.50;99.90;;;;;;4975048;28;89552;-34
2021/12/05 06:55:12;;;;;;;22.42;10.52;;;3.50;99.90;;;;;;4974304;28;87391;-34
2021/12/05 06:57:38;;;;;;;16.73;10.68;;;3.50;99.90;;;;;;4974737;28;88408;-32
2021/12/05 07:00:07;;;;;;;20.02;10.57;;;3.60;99.90;;;;;;4975100;28;87034;-33
2021/12/05 07:02:33;;;;;;;21.55;10.77;;;3.60;99.90;;;;;;4974361;28;88923;-34
2021/12/05 07:05:22;;;;;;;15.32;11.52;;;3.60;99.90;;;;;;4975157;28;88108;-31
2021/12/05 07:07:48;;;;;;;15.70;10.40;;;3.60;99.90;;;;;;4973708;28;88664;-33
2021/12/05 07:10:16;;;;;;;16.73;12.48;;;3.60;99.90;;;;;;4974264;28;87957;-34
2021/12/05 07:26:07;;;;;;;19.58;12.32;;;3.70;99.90;;;;;;4973601;28;88749;-35
2021/12/05 07:42:22;;;;;;;20.95;12.40;;;3.80;99.90;;;;;;4973357;28;87513;-34
2021/12/05 07:44:48;;;;;;;15.60;11.38;;;3.80;99.90;;;;;;4989255;28;89243;-33
2021/12/05 07:47:19;;;;;;;21.27;13.32;;;3.80;99.90;;;;;;4973972;28;89219;-35
2021/12/05 07:49:47;;;;;;;22.45;13.63;;;3.80;99.90;;;;;;4973334;28;88686;-34
2021/12/05 07:52:18;;;;;;;25.13;13.90;;;3.80;99.90;;;;;;4974720;28;87659;-35
2021/12/05 07:54:52;;;;;;;33.40;14.98;;;3.90;99.90;;;;;;4973359;28;88856;-35
2021/12/05 07:57:28;;;;;;;21.27;14.18;;;3.90;99.90;;;;;;4972498;28;87596;-33
2021/12/05 08:16:12;;;;;;;18.08;12.98;;;4.00;99.90;;;;;;4962669;28;89229;-35
2021/12/05 08:18:38;;;;;;;23.90;14.73;;;4.00;99.90;;;;;;4972387;28;88728;-33
2021/12/05 08:21:07;;;;;;;19.55;13.57;;;4.00;99.90;;;;;;4973855;28;88014;-34
2021/12/05 08:23:33;;;;;;;;;;;4.10;99.90;;;;;;4974141;28;87747;-34
2021/12/05 08:26:08;;;;;;;26.95;14.38;;;4.10;99.90;;;;;;4975481;28;87803;-31
2021/12/05 08:28:59;;;;;;;31.80;13.98;;;4.10;99.90;;;;;;4954606;28;89534;-35
2021/12/05 10:17:08;;;;;;;13.43;10.40;;;5.20;99.90;;;;;;4909005;28;88029;-34
2021/12/05 10:26:30;;;;;;;14.00;10.35;;;5.40;99.90;;;;;;4963121;28;87414;-36
2021/12/05 10:38:18;;;;;;;12.32;9.68;;;5.60;99.90;;;;;;4955449;28;89014;-37
2021/12/05 10:44:54;;;;;;;13.63;10.00;;;5.70;99.90;;;;;;4970319;28;88432;-37
2021/12/05 10:47:42;;;;;;;11.73;8.10;;;5.70;99.90;;;;;;4960022;28;89692;-37
2021/12/05 10:54:14;;;;;;;14.95;9.07;;;5.60;99.90;;;;;;4920606;28;87665;-33
2021/12/05 10:56:51;;;;;;;12.38;9.57;;;5.70;99.90;;;;;;4918452;28;89715;-33
2021/12/05 10:59:35;;;;;;;14.93;9.48;;;5.60;99.90;;;;;;4947845;28;87833;-32
2021/12/05 11:02:05;;;;;;;11.75;8.18;;;5.60;99.90;;;;;;4957555;28;88426;-33
2021/12/05 11:04:35;;;;;;;15.25;9.85;;;5.60;99.90;;;;;;4954104;28;87433;-37
2021/12/05 11:07:11;;;;;;;13.68;10.02;;;5.70;99.90;;;;;;4954549;28;89506;-34
2021/12/05 11:09:38;;;;;;;14.48;8.63;;;5.70;99.90;;;;;;4945430;28;89824;-34
2021/12/05 11:12:14;;;;;;;13.75;11.00;;;5.80;99.90;;;;;;4950623;28;88477;-34
2021/12/05 11:14:43;;;;;;;13.40;10.00;;;5.80;99.90;;;;;;4952849;28;88291;-34
2021/12/05 11:17:16;;;;;;;14.40;9.00;;;5.80;99.90;;;;;;4956707;28;88869;-36
2021/12/05 11:19:44;;;;;;;15.10;8.13;;;5.80;99.90;;;;;;4945902;28;92284;-36
2021/12/05 11:22:22;;;;;;;9.63;7.93;;;5.90;99.90;;;;;;4958619;28;89032;-37
2021/12/05 11:24:52;;;;;;;9.60;8.55;;;5.90;99.90;;;;;;4953899;28;88700;-36
2021/12/05 11:27:18;;;;;;;14.05;9.68;;;5.90;99.90;;;;;;4961990;28;89740;-34
2021/12/05 11:30:17;;;;;;;11.38;8.05;;;5.80;99.90;;;;;;4959535;28;88236;-36
2021/12/05 11:32:42;;;;;;;15.70;8.00;;;5.90;99.90;;;;;;4974799;28;88374;-38
2021/12/05 11:38:49;;;;;;;13.40;8.65;;;5.90;99.90;;;;;;4962972;28;87331;-37
2021/12/05 11:48:40;;;;;;;9.93;7.72;;;6.00;99.90;;;;;;4952825;28;88214;-35
2021/12/05 11:51:17;;;;;;;9.23;8.32;;;6.00;99.90;;;;;;4963668;28;89189;-33
2021/12/05 11:53:50;;;;;;;11.07;7.77;;;6.00;99.90;;;;;;4947327;28;89291;-34
2021/12/05 11:56:22;;;;;;;10.25;7.80;;;6.00;99.90;;;;;;4946550;28;88490;-37
2021/12/05 11:59:09;;;;;;;9.43;7.43;;;6.10;99.90;;;;;;4939858;28;87335;-34
2021/12/05 12:01:50;;;;;;;10.32;7.30;;;6.10;99.90;;;;;;4948708;28;89297;-33
2021/12/05 12:04:19;;;;;;;8.25;6.68;;;6.30;99.90;;;;;;4965914;28;87993;-37
2021/12/05 12:07:32;;;;;;;10.80;6.97;;;6.20;99.90;;;;;;4955629;28;87324;-37
2021/12/05 12:13:41;;;;;;;9.63;7.55;;;6.10;99.90;;;;;;4965547;28;87444;-37
2021/12/05 12:16:08;;;;;;;11.88;7.22;;;6.10;99.90;;;;;;4951418;28;89499;-36
2021/12/05 12:18:40;;;;;;;8.55;6.47;;;6.10;99.90;;;;;;4945740;28;90539;-35
2021/12/05 12:21:12;;;;;;;6.03;5.38;;;6.20;99.90;;;;;;4947273;28;87502;-31
2021/12/05 12:23:39;;;;;;;8.02;6.60;;;6.10;99.90;;;;;;4945837;28;89621;-39
2021/12/05 12:26:33;;;;;;;9.25;6.70;;;6.10;99.90;;;;;;4953144;28;88679;-37
2021/12/05 12:28:59;;;;;;;6.85;6.00;;;6.10;99.90;;;;;;4948907;28;89173;-33
2021/12/05 12:31:34;;;;;;;7.47;6.25;;;6.10;99.90;;;;;;4947281;28;87537;-33
2021/12/05 12:34:06;;;;;;;8.15;5.70;;;6.00;99.90;;;;;;4946408;28;89834;-36
2021/12/05 12:36:34;;;;;;;10.93;6.43;;;6.00;99.90;;;;;;4947576;28;88694;-36
2021/12/05 12:39:04;;;;;;;8.85;6.68;;;6.00;99.90;;;;;;4961185;28;88810;-33
2021/12/05 12:41:30;;;;;;;8.85;5.70;;;6.00;99.90;;;;;;4953193;28;88244;-34
2021/12/05 12:44:05;;;;;;;5.82;5.18;;;6.00;99.90;;;;;;4958225;28;89599;-32
2021/12/05 12:46:50;;;;;;;7.00;5.45;;;6.00;99.90;;;;;;4955355;28;88122;-32
2021/12/05 12:49:16;;;;;;;9.93;5.97;;;6.10;99.90;;;;;;4957771;28;89155;-36
2021/12/05 12:51:47;;;;;;;8.35;5.85;;;6.10;99.90;;;;;;4953875;28;87791;-36
2021/12/05 13:01:36;;;;;;;8.38;7.45;;;6.10;99.90;;;;;;4970500;28;89510;-36
2021/12/05 13:12:44;;;;;;;8.55;6.10;;;6.20;99.90;;;;;;4986278;28;89334;-38
2021/12/05 13:21:42;;;;;;;7.53;5.88;;;6.30;99.90;;;;;;4943038;28;87737;-34
2021/12/05 13:24:32;;;;;;;7.88;6.03;;;6.20;99.90;;;;;;4965561;28;88847;-37
2021/12/05 13:27:03;;;;;;;6.03;5.15;;;6.20;99.90;;;;;;4976639;28;87021;-34
2021/12/05 13:37:24;;;;;;;7.32;5.38;;;6.30;99.90;;;;;;4949307;28;88060;-36
2021/12/05 13:43:31;;;;;;;8.02;6.78;;;6.30;99.90;;;;;;4954977;28;88067;-36
2021/12/05 13:45:59;;;;;;;6.50;5.50;;;6.30;99.90;;;;;;4938388;28;88120;-36
2021/12/05 13:48:29;;;;;;;8.60;5.53;;;6.30;99.90;;;;;;4955792;28;88864;-36
2021/12/05 13:51:04;;;;;;;6.47;5.82;;;6.30;99.90;;;;;;4955316;28;88399;-35
2021/12/05 13:53:35;;;;;;;8.52;5.53;;;6.40;99.90;;;;;;4954827;28;88436;-36
2021/12/05 13:56:06;;;;;;;8.68;5.78;;;6.30;99.90;;;;;;4955690;28;88900;-36
2021/12/05 13:58:36;;;;;;;7.45;5.88;;;6.20;99.90;;;;;;4955927;28;88236;-36
2021/12/05 14:01:01;;;;;;;8.10;5.72;;;6.20;99.90;;;;;;4955220;28;86997;-38
2021/12/05 14:03:49;;;;;;;9.70;6.28;;;6.20;99.90;;;;;;4954546;28;89361;-35
2021/12/05 14:06:28;;;;;;;5.60;4.97;;;6.30;99.90;;;;;;4953621;28;91142;-36
2021/12/05 14:08:58;;;;;;;10.75;5.13;;;6.20;99.90;;;;;;4955829;28;88796;-37
2021/12/05 14:11:24;;;;;;;5.55;5.03;;;6.20;99.90;;;;;;4955434;28;87384;-36
2021/12/05 14:13:50;;;;;;;8.48;5.57;;;6.20;99.90;;;;;;4954027;28;89386;-35
2021/12/05 14:16:16;;;;;;;7.95;5.47;;;6.10;99.90;;;;;;4954950;28;88775;-36
2021/12/05 14:18:42;;;;;;;7.72;6.07;;;6.20;99.90;;;;;;4954362;28;88348;-36
2021/12/05 14:21:16;;;;;;;24.02;20.02;;;6.10;99.90;;;;;;4954852;28;87023;-36
2021/12/05 14:23:52;;;;;;;8.55;7.20;;;6.10;99.90;;;;;;4953811;28;87968;-37
2021/12/05 14:26:21;;;;;;;10.70;6.63;;;6.10;99.90;;;;;;4955605;28;88731;-35
2021/12/05 14:29:15;;;;;;;8.07;5.90;;;6.00;99.90;;;;;;4954397;28;88781;-37
2021/12/05 14:31:44;;;;;;;7.00;5.57;;;6.00;99.90;;;;;;4950945;28;88013;-35
2021/12/05 14:34:12;;;;;;;6.15;5.65;;;6.00;99.90;;;;;;4949649;28;89682;-35
2021/12/05 14:37:02;;;;;;;6.57;6.03;;;6.00;99.90;;;;;;4948592;28;88754;-35
2021/12/05 14:39:40;;;;;;;6.63;5.93;;;5.90;99.90;;;;;;4949245;28;88643;-37
2021/12/05 14:42:10;;;;;;;6.53;5.93;;;5.90;99.90;;;;;;4951017;28;89199;-36
2021/12/05 14:44:38;;;;;;;8.15;5.93;;;5.90;99.90;;;;;;4950111;28;89028;-36
2021/12/05 14:47:08;;;;;;;8.07;6.93;;;5.90;99.90;;;;;;4949018;28;88544;-36
2021/12/05 14:49:45;;;;;;;8.27;7.45;;;5.80;99.90;;;;;;4949986;28;88541;-36
2021/12/05 14:52:17;;;;;;;7.88;7.10;;;5.80;99.90;;;;;;4965000;28;87962;-34
2021/12/05 14:54:43;;;;;;;8.10;6.35;;;5.80;99.90;;;;;;4948532;28;88990;-36
2021/12/05 14:57:15;;;;;;;10.52;7.55;;;5.80;99.90;;;;;;4947739;28;89707;-35
2021/12/05 14:59:43;;;;;;;8.27;7.15;;;5.80;99.90;;;;;;4948935;28;90087;-35
2021/12/05 15:02:10;;;;;;;8.02;7.22;;;5.70;99.90;;;;;;4949710;28;88435;-36
2021/12/05 15:04:40;;;;;;;7.78;7.03;;;5.80;99.90;;;;;;4947958;28;90613;-36
2021/12/05 15:07:07;;;;;;;15.88;12.43;;;5.70;99.90;;;;;;4948876;28;88783;-36
2021/12/05 15:09:35;;;;;;;9.07;7.40;;;5.70;99.90;;;;;;4948278;28;88743;-35
2021/12/05 15:12:03;;;;;;;12.50;9.53;;;5.70;99.90;;;;;;4947907;28;88211;-36
2021/12/05 15:14:31;;;;;;;12.68;9.60;;;5.60;99.90;;;;;;4948339;28;88897;-38
2021/12/05 15:17:09;;;;;;;18.80;13.85;;;5.60;99.90;;;;;;4949198;28;88826;-34
2021/12/05 15:19:38;;;;;;;20.00;10.35;;;5.60;99.90;;;;;;4962634;28;88861;-36
2021/12/05 15:22:05;;;;;;;11.82;9.90;;;5.60;99.90;;;;;;4983366;28;88102;-35
2021/12/05 15:24:31;;;;;;;12.07;10.32;;;5.60;99.90;;;;;;4983573;28;89405;-34
2021/12/05 15:27:02;;;;;;;15.82;10.75;;;5.60;99.90;;;;;;4982890;28;89415;-36
2021/12/05 15:29:29;;;;;;;14.75;9.07;;;5.60;99.90;;;;;;4983442;28;88607;-36
2021/12/05 15:31:56;;;;;;;12.00;9.68;;;5.50;99.90;;;;;;4952547;28;88680;-35
2021/12/05 15:34:27;;;;;;;14.40;9.98;;;5.60;99.90;;;;;;4968203;28;88134;-36
2021/12/05 15:36:54;;;;;;;16.92;9.73;;;5.60;99.90;;;;;;4966996;28;89716;-36
2021/12/05 15:39:25;;;;;;;14.27;11.98;;;5.60;99.90;;;;;;4968064;28;88467;-33
2021/12/05 15:41:53;;;;;;;12.88;10.77;;;5.50;99.90;;;;;;4950222;28;87757;-35
2021/12/05 15:44:39;;;;;;;18.10;10.77;;;5.50;99.90;;;;;;4913820;28;89089;-34
2021/12/05 15:47:14;;;;;;;16.42;11.70;;;5.40;99.90;;;;;;4962536;28;89534;-35
2021/12/05 15:49:51;;;;;;;15.90;12.43;;;5.40;99.90;;;;;;4947572;28;90299;-35
2021/12/05 15:52:19;;;;;;;13.50;10.05;;;5.40;99.90;;;;;;4931060;28;87390;-34
2021/12/05 15:54:45;;;;;;;19.60;11.85;;;5.40;99.90;;;;;;4947733;28;89062;-35
2021/12/05 15:57:22;;;;;;;11.68;10.50;;;5.40;99.90;;;;;;4947888;28;88405;-35
2021/12/05 15:59:48;;;;;;;18.20;11.95;;;5.30;99.90;;;;;;4946825;28;89507;-35
2021/12/05 16:02:18;;;;;;;15.43;12.20;;;5.30;99.90;;;;;;4948166;28;88867;-35
2021/12/05 16:04:45;;;;;;;16.10;11.90;;;5.30;99.90;;;;;;4963062;28;90960;-35
2021/12/05 16:07:11;;;;;;;13.00;11.18;;;5.30;99.90;;;;;;4947906;28;88186;-35
2021/12/05 16:09:39;;;;;;;18.08;13.70;;;5.30;99.90;;;;;;4947365;28;87542;-35
2021/12/05 16:12:19;;;;;;;14.45;12.93;;;5.30;99.90;;;;;;4945126;28;88455;-35
2021/12/05 16:14:49;;;;;;;22.15;13.18;;;5.30;99.90;;;;;;4944470;28;89106;-35
2021/12/05 16:17:24;;;;;;;18.10;11.85;;;5.30;99.90;;;;;;4946246;28;91696;-36
2021/12/05 16:20:16;;;;;;;13.77;12.35;;;5.30;99.90;;;;;;4945164;28;88447;-35
2021/12/05 16:23:03;;;;;;;17.13;12.32;;;5.30;99.90;;;;;;4960598;28;88311;-36
2021/12/05 16:25:29;;;;;;;15.05;11.80;;;5.30;99.90;;;;;;4958084;28;89318;-36
2021/12/05 16:28:02;;;;;;;20.30;13.52;;;5.20;99.90;;;;;;4943981;28;90574;-35
2021/12/05 16:30:34;;;;;;;14.93;11.98;;;5.20;99.90;;;;;;4947395;28;88585;-35
2021/12/05 16:33:02;;;;;;;17.02;13.27;;;5.10;99.90;;;;;;4947402;28;88771;-34
2021/12/05 16:35:37;;;;;;;16.27;13.50;;;5.20;99.90;;;;;;4946399;28;89474;-35
2021/12/05 16:38:29;;;;;;;14.05;12.68;;;5.20;99.90;;;;;;4946564;28;89977;-35
2021/12/05 16:40:57;;;;;;;16.63;12.57;;;5.20;99.90;;;;;;4946560;28;90442;-36
2021/12/05 16:43:23;;;;;;;21.08;13.95;;;5.20;99.90;;;;;;4946793;28;88046;-35
2021/12/05 16:45:55;;;;;;;17.27;13.85;;;5.20;99.90;;;;;;4946874;28;89195;-35
2021/12/05 16:48:21;;;;;;;20.70;14.20;;;5.20;99.90;;;;;;4946871;28;88110;-36
2021/12/05 16:50:47;;;;;;;20.38;16.88;;;5.20;99.90;;;;;;4947181;28;87896;-37
2021/12/05 16:53:14;;;;;;;23.17;15.55;;;5.20;99.90;;;;;;4946972;28;88616;-35
2021/12/05 16:55:45;;;;;;;22.92;15.23;;;5.20;99.90;;;;;;4963001;28;89345;-35
2021/12/05 16:58:17;;;;;;;21.35;13.55;;;5.10;99.90;;;;;;4946095;28;88813;-35
2021/12/05 17:00:50;;;;;;;19.63;14.38;;;5.10;99.90;;;;;;4946952;28;89256;-35
2021/12/05 17:03:20;;;;;;;18.35;13.70;;;5.10;99.90;;;;;;4947174;28;88817;-35
2021/12/05 17:05:48;;;;;;;16.88;13.88;;;5.10;99.90;;;;;;4946586;28;89132;-35
2021/12/05 17:08:21;;;;;;;17.95;14.00;;;5.10;99.90;;;;;;4946951;28;88756;-35
2021/12/05 17:11:13;;;;;;;19.02;14.63;;;5.10;99.90;;;;;;4946866;28;88876;-36
2021/12/05 17:13:53;;;;;;;15.77;13.95;;;5.10;99.90;;;;;;4943780;28;87855;-35
2021/12/05 17:16:27;;;;;;;25.80;16.90;;;5.10;99.90;;;;;;4946502;28;89236;-36
2021/12/05 17:18:53;;;;;;;23.95;16.17;;;5.10;99.90;;;;;;4945967;28;89203;-35
2021/12/05 17:21:27;;;;;;;21.73;16.48;;;5.10;99.90;;;;;;4962347;28;88633;-34
2021/12/05 17:24:36;;;;;;;28.17;17.98;;;5.10;99.90;;;;;;4945326;28;87486;-33
2021/12/05 17:27:04;;;;;;;28.55;20.92;;;5.10;99.90;;;;;;4942551;28;89678;-35
2021/12/05 17:29:35;;;;;;;40.33;26.38;;;5.20;99.90;;;;;;4946377;28;89513;-35
2021/12/05 17:32:13;;;;;;;60.88;41.17;;;5.10;99.90;;;;;;4946737;28;89436;-35
2021/12/05 17:34:44;;;;;;;30.27;20.17;;;5.10;99.90;;;;;;4946200;28;88544;-35
2021/12/05 17:37:30;;;;;;;33.45;23.45;;;5.10;99.90;;;;;;4962001;28;90402;-34
2021/12/05 17:39:58;;;;;;;30.77;22.00;;;5.10;99.90;;;;;;4945434;28;88451;-35
2021/12/05 17:42:26;;;;;;;27.73;19.95;;;5.10;99.90;;;;;;4947139;28;88758;-35
2021/12/05 17:44:56;;;;;;;28.52;23.25;;;5.00;99.90;;;;;;4945644;28;87422;-36
2021/12/05 17:47:22;;;;;;;29.95;23.02;;;5.00;99.90;;;;;;4946659;28;89053;-35
2021/12/05 17:49:50;;;;;;;27.88;22.27;;;5.10;99.90;;;;;;4946455;28;87835;-34
2021/12/05 17:52:17;;;;;;;33.43;24.77;;;5.10;99.90;;;;;;4946880;28;88255;-35
2021/12/05 17:57:18;;;;;;;37.60;27.88;;;5.10;99.90;;;;;;4965157;28;89272;-35
2021/12/05 18:05:08;;;;;;;34.75;27.85;;;5.10;99.90;;;;;;4950332;28;88563;-35
2021/12/05 18:07:34;;;;;;;36.50;24.77;;;5.10;99.90;;;;;;4951196;28;89579;-34
2021/12/05 18:09:59;;;;;;;41.10;30.02;;;5.10;99.90;;;;;;4951320;28;88447;-34
2021/12/05 18:12:33;;;;;;;43.95;29.42;;;5.10;99.90;;;;;;4951874;28;88602;-35
2021/12/05 18:15:01;;;;;;;39.80;28.70;;;5.10;99.90;;;;;;4953259;28;88329;-35
2021/12/05 18:17:27;;;;;;;40.13;30.63;;;5.10;99.90;;;;;;4947408;28;89612;-35
2021/12/05 18:19:53;;;;;;;35.00;26.98;;;5.10;99.90;;;;;;4952301;28;89110;-35
2021/12/05 18:22:19;;;;;;;38.25;29.75;;;5.00;99.90;;;;;;4960820;28;89994;-35
2021/12/05 18:24:46;;;;;;;42.83;30.90;;;5.00;99.90;;;;;;4952239;28;87954;-35
2021/12/05 18:27:13;;;;;;;44.50;31.33;;;5.00;99.90;;;;;;4970157;28;89390;-35
2021/12/05 18:29:38;;;;;;;40.33;29.17;;;5.00;99.90;;;;;;4969522;28;89133;-35
2021/12/05 18:32:04;;;;;;;41.45;30.83;;;5.00;99.90;;;;;;4970289;28;89316;-35
2021/12/05 18:34:31;;;;;;;43.75;32.97;;;5.00;99.90;;;;;;4969691;28;88259;-35
2021/12/05 18:37:02;;;;;;;40.38;28.60;;;4.90;99.90;;;;;;4970137;28;89699;-37
2021/12/05 18:39:32;;;;;;;38.05;28.55;;;5.00;99.90;;;;;;4968921;28;88783;-35
2021/12/05 18:42:04;;;;;;;39.40;30.40;;;4.90;99.90;;;;;;4969368;28;89485;-35
2021/12/05 18:44:33;;;;;;;40.67;29.27;;;4.90;99.90;;;;;;4969650;28;88484;-35
2021/12/05 18:46:59;;;;;;;;;;;4.90;99.90;;;;;;4969101;28;89302;-35
2021/12/05 18:49:27;;;;;;;38.63;32.72;;;4.90;99.90;;;;;;4972698;28;88647;-35
2021/12/05 18:51:54;;;;;;;46.80;31.98;;;4.90;99.90;;;;;;4970277;28;88632;-35
2021/12/05 18:54:20;;;;;;;44.33;31.40;;;4.90;99.90;;;;;;4969967;28;87315;-35
2021/12/05 18:56:46;;;;;;;43.00;31.42;;;4.90;99.90;;;;;;4969063;28;89141;-35
2021/12/05 18:59:12;;;;;;;46.92;31.88;;;4.80;99.90;;;;;;4970159;28;89102;-34
2021/12/05 19:04:32;;;;;;;76.55;56.65;;;4.70;99.90;;;;;;4958332;28;88043;-34
2021/12/05 19:07:07;;;;;;;58.58;41.55;;;4.70;99.90;;;;;;4950671;28;89281;-35
2021/12/05 19:12:00;;;;;;;49.53;33.55;;;4.80;99.90;;;;;;4951041;28;89338;-35
2021/12/05 19:14:33;;;;;;;40.58;32.33;;;4.70;99.90;;;;;;4952136;28;87070;-35
2021/12/05 19:17:24;;;;;;;40.17;31.00;;;4.70;99.90;;;;;;4949542;28;88940;-35
2021/12/05 19:19:54;;;;;;;40.88;30.85;;;4.60;99.90;;;;;;4948019;28;88746;-35
2021/12/05 19:22:30;;;;;;;47.17;33.35;;;4.70;99.90;;;;;;4965738;28;88887;-34
2021/12/05 19:25:05;;;;;;;58.13;48.80;;;4.60;99.90;;;;;;4949727;28;88281;-35
2021/12/05 19:27:31;;;;;;;40.00;32.53;;;4.60;99.90;;;;;;4950205;28;89127;-33
2021/12/05 19:29:57;;;;;;;39.15;31.38;;;4.60;99.90;;;;;;4950535;28;87386;-35
2021/12/05 19:32:25;;;;;;;38.75;28.95;;;4.50;99.90;;;;;;4950796;28;88712;-34
2021/12/05 19:34:51;;;;;;;35.37;26.37;;;4.50;99.90;;;;;;4949491;28;89513;-34
2021/12/05 19:37:17;;;;;;;70.85;52.55;;;4.60;99.90;;;;;;4949362;28;89164;-35
2021/12/05 19:39:45;;;;;;;38.90;31.35;;;4.60;99.90;;;;;;4949640;28;88469;-35